Time;durP1;ratioP1;P1;durP2;ratioP2;P2;SDS_P1;SDS_P2;PMS_P1;PMS_P2;Temp;Humidity;BMP_temperature;BMP_pressure;BME280_temperature;BME280_humidity;BME280_pressure;Samples;Min_cycle;Max_cycle;Signal;HPM_P1;HPM_P2
2023/03/06 00:02:50;;;;;;;10.43;6.70;;;;;;;7.63;45.16;97120.94;8416851;28;20250;-70
2023/03/06 00:06:53;;;;;;;8.57;6.07;;;;;;;7.60;45.21;97121.06;8416574;28;20240;-70
2023/03/06 00:10:59;;;;;;;10.17;6.80;;;;;;;7.64;44.71;97111.47;8416893;28;20231;-70
2023/03/06 00:15:02;;;;;;;8.80;6.40;;;;;;;7.56;45.35;97104.09;8416745;28;20499;-70
2023/03/06 00:19:07;;;;;;;8.97;6.60;;;;;;;7.52;45.30;97105.13;8416526;28;20240;-70
2023/03/06 00:23:10;;;;;;;9.03;6.57;;;;;;;7.38;45.50;97077.41;8416591;28;20228;-70
2023/03/06 00:27:15;;;;;;;9.33;6.73;;;;;;;7.35;45.28;97076.72;8416028;28;20239;-70
2023/03/06 00:31:17;;;;;;;8.67;6.37;;;;;;;7.44;45.59;97094.31;8416019;28;20227;-70
2023/03/06 00:35:20;;;;;;;11.47;6.77;;;;;;;7.40;45.73;97090.22;8415836;28;20228;-69
2023/03/06 00:39:23;;;;;;;10.27;6.53;;;;;;;7.48;45.52;97092.44;8415865;28;20228;-70
2023/03/06 00:43:27;;;;;;;10.13;6.73;;;;;;;7.36;45.39;97066.34;8415819;28;20228;-70
2023/03/06 00:47:30;;;;;;;11.73;6.80;;;;;;;7.52;45.37;97076.78;8415811;28;20228;-70
2023/03/06 00:51:32;;;;;;;9.23;6.37;;;;;;;7.51;45.66;97071.72;8414459;28;20401;-70
2023/03/06 00:55:35;;;;;;;11.17;6.77;;;;;;;7.48;45.25;97064.94;8415591;28;20224;-70
2023/03/06 00:59:39;;;;;;;9.60;6.63;;;;;;;7.38;45.75;97064.53;8415368;28;20224;-70
2023/03/06 01:03:44;;;;;;;11.37;7.60;;;;;;;7.48;45.39;97056.38;8414593;28;20227;-71
2023/03/06 01:07:46;;;;;;;13.40;8.40;;;;;;;7.08;45.99;97022.97;8414982;28;20233;-70
2023/03/06 01:11:49;;;;;;;10.70;7.23;;;;;;;7.27;46.35;97045.31;8414650;28;20231;-70
2023/03/06 01:15:54;;;;;;;11.03;7.70;;;;;;;7.36;46.04;97035.44;8414582;28;20516;-70
2023/03/06 01:19:57;;;;;;;10.53;7.53;;;;;;;7.46;45.91;97035.84;8414342;28;20228;-70
2023/03/06 01:24:00;;;;;;;9.77;7.37;;;;;;;7.50;45.78;97032.22;8414463;28;20229;-70
2023/03/06 01:28:03;;;;;;;9.93;7.20;;;;;;;7.36;46.18;97019.97;8414282;28;20551;-70
2023/03/06 01:32:07;;;;;;;10.87;7.43;;;;;;;7.43;45.95;97023.94;8413997;28;20227;-70
2023/03/06 01:36:12;;;;;;;10.60;8.00;;;;;;;7.27;46.31;97017.81;8413849;28;20224;-70
2023/03/06 01:40:15;;;;;;;11.47;7.97;;;;;;;7.27;46.46;97007.53;8413804;28;20228;-70
2023/03/06 01:44:18;;;;;;;10.40;8.10;;;;;;;7.19;46.89;97005.31;8413760;28;20405;-70
2023/03/06 01:48:23;;;;;;;9.17;7.00;;;;;;;7.23;46.45;96996.56;8413632;28;20401;-70
2023/03/06 01:52:29;;;;;;;10.23;7.43;;;;;;;7.29;46.32;96989.44;8413239;28;20406;-70
2023/03/06 01:56:31;;;;;;;11.57;7.80;;;;;;;7.28;46.37;96980.88;8413391;28;20231;-70
2023/03/06 02:00:35;;;;;;;9.63;7.10;;;;;;;7.32;46.49;96984.97;8412811;28;20239;-71
2023/03/06 02:04:41;;;;;;;11.30;7.67;;;;;;;7.37;46.27;96985.59;8412877;28;20232;-70
2023/03/06 02:08:43;;;;;;;11.33;8.43;;;;;;;7.34;46.19;96988.31;8445919;28;20227;-70
2023/03/06 02:12:47;;;;;;;10.63;7.40;;;;;;;7.40;46.33;96984.59;8446110;28;20596;-70
2023/03/06 02:16:50;;;;;;;9.03;7.50;;;;;;;7.35;46.82;96977.13;8446130;28;20227;-70
2023/03/06 02:20:57;;;;;;;10.47;7.80;;;;;;;7.24;46.64;96975.03;8445857;28;20239;-70
2023/03/06 02:25:05;;;;;;;11.57;7.83;;;;;;;7.25;46.66;96962.97;8446162;28;20231;-69
2023/03/06 02:29:09;;;;;;;11.53;7.83;;;;;;;7.15;46.80;96952.28;8445886;28;20226;-68
2023/03/06 02:33:13;;;;;;;11.20;7.87;;;;;;;7.30;46.75;96968.75;8445646;28;20231;-68
2023/03/06 02:37:16;;;;;;;11.60;8.27;;;;;;;7.06;47.16;96955.28;8445692;28;20234;-68
2023/03/06 02:41:18;;;;;;;12.27;8.00;;;;;;;7.09;47.32;96960.28;8445670;28;20408;-69
2023/03/06 02:45:27;;;;;;;11.70;8.50;;;;;;;6.98;47.37;96944.50;8445512;28;20419;-69
2023/03/06 02:49:30;;;;;;;10.50;7.63;;;;;;;7.18;47.06;96954.72;8445551;28;20246;-69
2023/03/06 02:53:33;;;;;;;11.03;8.13;;;;;;;7.17;47.21;96950.47;8445003;28;20239;-68
2023/03/06 02:57:39;;;;;;;12.37;8.90;;;;;;;7.06;47.30;96932.09;8445207;28;20281;-68
2023/03/06 03:01:43;;;;;;;11.83;8.97;;;;;;;7.18;47.16;96925.56;8411346;28;20393;-68
2023/03/06 03:05:46;;;;;;;11.70;8.70;;;;;;;7.02;47.45;96912.56;8411560;28;20232;-68
2023/03/06 03:09:49;;;;;;;13.13;8.70;;;;;;;7.08;47.33;96917.41;8411706;28;20285;-69
2023/03/06 03:13:52;;;;;;;11.73;8.20;;;;;;;7.11;47.56;96924.19;8414946;28;20232;-68
2023/03/06 03:17:56;;;;;;;14.47;9.30;;;;;;;7.02;47.35;96903.09;8418198;28;20257;-68
2023/03/06 03:21:58;;;;;;;12.77;8.80;;;;;;;6.90;47.88;96906.25;8417896;28;20236;-68
2023/03/06 03:26:06;;;;;;;12.77;8.80;;;;;;;6.97;47.87;96917.13;8418184;28;20247;-69
2023/03/06 03:30:10;;;;;;;11.97;8.70;;;;;;;7.08;47.78;96916.59;8417942;28;20298;-68
2023/03/06 03:34:15;;;;;;;13.87;9.07;;;;;;;6.95;48.34;96914.59;8417655;28;20411;-68
2023/03/06 03:38:18;;;;;;;13.40;9.53;;;;;;;7.13;47.93;96919.78;8417570;28;20262;-69
2023/03/06 03:42:21;;;;;;;13.07;9.00;;;;;;;7.17;47.89;96906.69;8417511;28;20228;-69
2023/03/06 03:46:23;;;;;;;15.30;10.30;;;;;;;7.18;47.99;96908.38;8417371;28;20228;-68
2023/03/06 03:50:28;;;;;;;14.13;10.00;;;;;;;7.18;47.86;96897.25;8417182;28;20457;-69
2023/03/06 03:54:30;;;;;;;14.03;9.87;;;;;;;7.18;48.04;96889.53;8417039;28;20293;-68
2023/03/06 03:58:33;;;;;;;13.70;9.70;;;;;;;7.08;48.12;96885.69;8416917;28;20224;-68
2023/03/06 04:02:36;;;;;;;13.83;9.63;;;;;;;7.09;48.04;96877.09;8416746;28;20228;-69
2023/03/06 04:06:40;;;;;;;15.73;9.43;;;;;;;7.14;48.08;96875.97;8416629;28;20228;-69
2023/03/06 04:10:43;;;;;;;16.57;10.23;;;;;;;7.06;48.33;96872.91;8416234;28;20270;-68
2023/03/06 04:14:46;;;;;;;14.23;9.67;;;;;;;7.10;48.40;96861.56;8416444;28;20228;-69
2023/03/06 04:18:49;;;;;;;13.10;9.57;;;;;;;7.02;48.62;96854.19;8416307;28;20232;-68
2023/03/06 04:22:53;;;;;;;15.23;10.93;;;;;;;6.97;48.69;96858.75;8416285;28;20430;-68
2023/03/06 04:26:56;;;;;;;15.63;9.93;;;;;;;7.03;48.34;96857.63;8415383;28;20235;-68
2023/03/06 04:30:59;;;;;;;16.03;10.37;;;;;;;7.08;48.14;96858.22;8416140;28;20228;-68
2023/03/06 04:35:02;;;;;;;14.23;10.37;;;;;;;7.14;48.18;96849.34;8416182;28;20239;-69
2023/03/06 04:39:06;;;;;;;15.23;10.20;;;;;;;7.13;48.37;96858.81;8416097;28;20278;-69
2023/03/06 04:43:10;;;;;;;16.20;11.10;;;;;;;7.15;48.39;96849.28;8415772;28;20232;-68
2023/03/06 04:47:13;;;;;;;18.57;11.27;;;;;;;6.81;48.73;96852.63;8415645;28;20399;-68
2023/03/06 04:51:16;;;;;;;15.83;11.00;;;;;;;7.04;48.57;96849.81;8415350;28;20232;-68
2023/03/06 04:55:21;;;;;;;17.33;11.47;;;;;;;6.85;48.74;96843.88;8415298;28;20228;-69
2023/03/06 04:59:24;;;;;;;17.53;10.97;;;;;;;7.00;48.65;96832.00;8415234;28;20227;-68
2023/03/06 05:03:26;;;;;;;16.23;11.43;;;;;;;6.99;48.90;96828.59;8415116;28;20563;-68
2023/03/06 05:07:29;;;;;;;16.90;11.90;;;;;;;6.92;48.79;96828.97;8414842;28;20248;-69
2023/03/06 05:11:33;;;;;;;16.23;11.73;;;;;;;7.03;48.54;96831.88;8414935;28;20228;-68
2023/03/06 05:15:36;;;;;;;16.40;12.03;;;;;;;7.07;48.54;96825.66;8414833;28;20244;-69
2023/03/06 05:19:39;;;;;;;15.20;11.53;;;;;;;7.01;48.74;96828.53;8414330;28;20231;-69
2023/03/06 05:23:41;;;;;;;17.13;12.53;;;;;;;7.06;48.27;96839.44;8414141;28;20456;-68
2023/03/06 05:27:45;;;;;;;17.73;12.80;;;;;;;7.06;48.35;96842.00;8414364;28;20239;-68
2023/03/06 05:31:48;;;;;;;16.90;12.30;;;;;;;6.78;49.17;96822.75;8414366;28;20235;-68
2023/03/06 05:35:51;;;;;;;19.60;13.33;;;;;;;7.02;48.88;96819.91;8414167;28;20531;-69
2023/03/06 05:39:54;;;;;;;17.73;12.33;;;;;;;6.99;48.90;96822.63;8413938;28;20256;-68
2023/03/06 05:44:03;;;;;;;19.30;13.73;;;;;;;6.98;48.72;96823.53;8413919;28;20239;-68
2023/03/06 05:48:06;;;;;;;18.90;13.60;;;;;;;6.88;48.85;96794.81;8413548;28;20406;-69
2023/03/06 05:52:09;;;;;;;21.17;13.80;;;;;;;7.08;48.71;96803.31;8413309;28;20246;-69
2023/03/06 05:56:11;;;;;;;18.37;12.90;;;;;;;6.95;48.68;96805.66;8413162;28;20228;-70
2023/03/06 06:00:16;;;;;;;16.60;13.23;;;;;;;6.95;48.99;96795.34;8412801;28;20519;-69
2023/03/06 06:04:19;;;;;;;23.50;13.60;;;;;;;6.95;48.86;96798.78;8413555;28;20523;-68
2023/03/06 06:08:22;;;;;;;20.87;14.20;;;;;;;6.66;49.81;96797.56;8413389;28;20224;-68
2023/03/06 06:12:26;;;;;;;20.30;14.63;;;;;;;6.89;49.30;96796.47;8413170;28;20230;-68
2023/03/06 06:16:30;;;;;;;22.47;15.77;;;;;;;6.85;49.52;96802.69;8412675;28;20236;-68
2023/03/06 06:20:34;;;;;;;20.23;14.47;;;;;;;6.89;49.25;96793.09;8412871;28;20255;-68
2023/03/06 06:24:37;;;;;;;19.87;14.67;;;;;;;6.96;48.99;96784.16;8413021;28;20419;-67
2023/03/06 06:28:39;;;;;;;22.10;15.37;;;;;;;7.00;49.15;96795.97;8403430;28;20239;-69
2023/03/06 06:32:43;;;;;;;21.40;14.63;;;;;;;7.17;48.83;96795.97;8411993;28;20224;-68
2023/03/06 06:36:49;;;;;;;22.30;15.60;;;;;;;7.13;48.38;96789.31;8412672;28;20232;-68
2023/03/06 06:40:55;;;;;;;21.63;14.40;;;;;;;7.10;48.91;96796.34;8412470;28;20306;-68
2023/03/06 06:45:17;;;;;;;22.80;15.63;;;;;;;7.04;49.49;96795.75;8412186;28;20244;-68
2023/03/06 06:49:24;;;;;;;22.97;14.77;;;;;;;7.25;48.74;96798.16;8411593;28;20236;-68
2023/03/06 06:53:27;;;;;;;21.83;14.83;;;;;;;7.28;48.49;96803.19;8412265;28;20235;-68
2023/03/06 06:57:30;;;;;;;22.73;16.10;;;;;;;7.23;49.02;96805.13;8412086;28;20555;-69
2023/03/06 07:01:33;;;;;;;24.03;16.67;;;;;;;7.31;48.71;96813.34;8412067;28;20235;-69
2023/03/06 07:05:37;;;;;;;21.40;15.00;;;;;;;7.33;48.85;96821.81;8412211;28;20238;-69
2023/03/06 07:09:40;;;;;;;22.03;15.53;;;;;;;7.38;48.59;96816.44;8412166;28;20240;-68
2023/03/06 07:13:43;;;;;;;23.07;15.47;;;;;;;7.36;48.87;96815.66;8411730;28;20251;-68
2023/03/06 07:17:46;;;;;;;22.97;15.20;;;;;;;7.42;48.65;96820.50;8411959;28;20558;-68
2023/03/06 07:21:53;;;;;;;23.07;15.87;;;;;;;7.44;48.68;96816.13;8412052;28;20228;-69
2023/03/06 07:25:57;;;;;;;21.20;15.30;;;;;;;7.48;48.56;96816.78;8411757;28;20395;-68
2023/03/06 07:30:00;;;;;;;24.77;16.23;;;;;;;7.55;48.44;96815.59;8411936;28;20232;-69
2023/03/06 07:34:03;;;;;;;21.37;16.17;;;;;;;7.57;48.35;96809.44;8411181;28;20231;-68
2023/03/06 07:38:08;;;;;;;20.80;16.20;;;;;;;7.34;48.79;96813.16;8411509;28;20217;-69
2023/03/06 07:42:12;;;;;;;20.47;15.40;;;;;;;7.53;48.25;96819.97;8411572;28;20523;-69
2023/03/06 07:46:15;;;;;;;23.80;16.40;;;;;;;7.72;48.25;96820.72;8411468;28;20547;-68
2023/03/06 07:50:20;;;;;;;24.50;18.27;;;;;;;7.80;47.89;96822.91;8411608;28;20321;-69
2023/03/06 07:54:24;;;;;;;19.17;14.50;;;;;;;7.80;47.57;96821.13;8411036;28;20239;-68
2023/03/06 07:58:27;;;;;;;22.27;15.30;;;;;;;8.00;46.68;96827.84;8411412;28;20413;-68
2023/03/06 08:02:31;;;;;;;21.20;16.03;;;;;;;7.88;46.21;96822.50;8416436;28;20432;-68
2023/03/06 08:06:34;;;;;;;19.27;14.43;;;;;;;8.22;46.30;96829.31;8417088;28;20224;-69
2023/03/06 08:10:47;;;;;;;20.40;13.93;;;;;;;8.13;45.71;96827.19;8417128;28;20231;-68
2023/03/06 08:14:50;;;;;;;16.20;12.93;;;;;;;8.33;45.43;96823.56;8416602;28;20224;-69
2023/03/06 08:18:53;;;;;;;17.03;13.00;;;;;;;8.19;45.57;96824.31;8416766;28;20232;-68
2023/03/06 08:22:56;;;;;;;16.37;13.13;;;;;;;8.04;45.79;96831.09;8416812;28;20228;-68
2023/03/06 08:27:00;;;;;;;17.37;12.90;;;;;;;8.33;45.48;96828.75;8416741;28;20232;-69
2023/03/06 08:31:08;;;;;;;17.27;12.77;;;;;;;8.44;44.82;96826.44;8416399;28;20532;-68
2023/03/06 08:35:11;;;;;;;16.00;13.43;;;;;;;8.30;45.00;96834.06;8416176;28;20228;-68
2023/03/06 08:39:14;;;;;;;16.47;13.10;;;;;;;8.31;45.21;96835.72;8416005;28;20551;-68
2023/03/06 08:43:18;;;;;;;15.67;12.03;;;;;;;8.38;45.08;96832.75;8416115;28;20244;-68
2023/03/06 08:47:21;;;;;;;16.50;12.20;;;;;;;8.44;44.53;96839.34;8415789;28;20225;-69
2023/03/06 08:51:23;;;;;;;14.57;11.57;;;;;;;8.47;44.56;96835.75;8415579;28;20228;-69
2023/03/06 08:55:27;;;;;;;12.40;10.93;;;;;;;8.26;45.44;96833.38;8415419;28;20240;-69
2023/03/06 08:59:31;;;;;;;12.70;11.03;;;;;;;8.34;45.05;96838.13;8415546;28;20228;-69
2023/03/06 09:03:34;;;;;;;14.07;10.97;;;;;;;8.05;45.72;96842.25;8415612;28;20243;-68
2023/03/06 09:07:37;;;;;;;14.17;11.30;;;;;;;7.91;46.26;96838.63;8415505;28;20239;-69
2023/03/06 09:11:40;;;;;;;15.90;11.40;;;;;;;8.14;46.53;96839.19;8415007;28;20230;-69
2023/03/06 09:15:44;;;;;;;13.33;10.73;;;;;;;8.06;46.38;96844.75;8414680;28;20225;-68
2023/03/06 09:19:46;;;;;;;13.43;10.30;;;;;;;7.74;47.41;96843.84;8414858;28;20228;-68
2023/03/06 09:23:49;;;;;;;13.00;10.67;;;;;;;8.03;46.90;96832.88;8414915;28;20228;-69
2023/03/06 09:27:52;;;;;;;15.03;11.33;;;;;;;8.10;47.37;96842.84;8414679;28;20255;-69
2023/03/06 09:32:14;;;;;;;13.13;11.07;;;;;;;8.09;47.73;96844.59;8414317;28;20523;-69
2023/03/06 09:36:19;;;;;;;14.50;11.13;;;;;;;8.38;47.20;96847.41;8414491;28;20243;-69
2023/03/06 09:40:26;;;;;;;13.30;10.63;;;;;;;8.34;46.27;96836.41;8414125;28;20232;-69
2023/03/06 09:44:30;;;;;;;12.83;10.87;;;;;;;7.66;47.72;96853.69;8413969;28;20227;-69
2023/03/06 09:48:41;;;;;;;14.13;10.80;;;;;;;8.34;61.06;96844.13;8413784;28;20238;-69
2023/03/06 09:52:47;;;;;;;10.20;8.10;;;;;;;10.83;64.06;96852.19;8413028;28;20335;-69
2023/03/06 09:56:50;;;;;;;12.83;10.70;;;;;;;10.96;51.87;96832.34;8413792;28;20541;-69
2023/03/06 10:00:59;;;;;;;14.37;12.00;;;;;;;10.16;44.72;96839.84;8413528;28;20227;-70
2023/03/06 10:05:08;;;;;;;14.03;11.80;;;;;;;9.12;47.16;96826.16;8413611;28;20243;-70
2023/03/06 10:09:14;;;;;;;13.93;11.90;;;;;;;8.84;47.23;96849.25;8413347;28;20234;-70
2023/03/06 10:13:20;;;;;;;12.63;11.30;;;;;;;8.83;47.24;96848.41;8413134;28;20226;-70
2023/03/06 10:17:25;;;;;;;14.07;11.90;;;;;;;8.50;46.84;96853.66;8412980;28;20448;-70
2023/03/06 10:21:43;;;;;;;15.03;11.70;;;;;;;8.59;47.29;96854.00;8412636;28;20239;-70
2023/03/06 10:25:50;;;;;;;12.53;11.23;;;;;;;8.38;47.43;96853.38;8412343;28;20235;-69
2023/03/06 10:29:56;;;;;;;13.77;10.60;;;;;;;8.33;47.57;96859.69;8412240;28;20232;-70
2023/03/06 10:34:19;;;;;;;12.13;10.47;;;;;;;8.40;47.33;96850.72;8412332;28;20297;-70
2023/03/06 10:38:24;;;;;;;13.30;10.13;;;;;;;8.38;47.32;96855.97;8412258;28;20560;-69
2023/03/06 10:42:27;;;;;;;11.23;9.63;;;;;;;8.19;47.85;96844.97;8412458;28;20634;-69
2023/03/06 10:46:33;;;;;;;11.70;9.60;;;;;;;8.41;47.30;96861.00;8412392;28;20246;-69
2023/03/06 10:50:36;;;;;;;11.97;9.60;;;;;;;8.22;47.75;96855.94;8412252;28;20255;-69
2023/03/06 10:54:43;;;;;;;11.83;9.73;;;;;;;8.20;47.55;96856.91;8412077;28;20233;-69
2023/03/06 10:58:45;;;;;;;10.63;9.20;;;;;;;8.33;47.39;96847.63;8411239;28;20351;-69
2023/03/06 11:03:05;;;;;;;10.40;9.20;;;;;;;8.53;46.89;96851.75;8411040;28;20537;-69
2023/03/06 11:07:14;;;;;;;10.23;9.13;;;;;;;8.42;46.00;96817.97;8411954;28;20228;-69
2023/03/06 11:11:26;;;;;;;9.80;8.80;;;;;;;8.75;45.73;96837.69;8411634;28;20482;-69
2023/03/06 11:15:38;;;;;;;13.03;9.67;;;;;;;8.50;46.34;96835.59;8411356;28;20239;-69
2023/03/06 11:19:41;;;;;;;11.57;9.40;;;;;;;8.61;46.81;96828.13;8411358;28;20224;-71
2023/03/06 11:23:46;;;;;;;11.43;9.67;;;;;;;8.72;46.26;96832.69;8411692;28;20224;-68
2023/03/06 11:27:56;;;;;;;10.43;9.20;;;;;;;8.96;45.83;96807.25;8411586;28;20228;-69
2023/03/06 11:32:04;;;;;;;11.03;9.43;;;;;;;9.08;44.53;96826.38;8411418;28;20235;-69
2023/03/06 11:36:13;;;;;;;12.07;9.67;;;;;;;9.15;43.34;96813.03;8416433;28;20239;-68
2023/03/06 11:40:20;;;;;;;10.67;9.57;;;;;;;9.61;43.16;96813.88;8417651;28;20240;-68
2023/03/06 11:44:32;;;;;;;10.23;8.93;;;;;;;9.24;43.23;96803.94;8417212;28;20412;-68
2023/03/06 11:48:39;;;;;;;10.13;9.00;;;;;;;9.30;43.21;96803.56;8417210;28;20239;-69
2023/03/06 11:52:47;;;;;;;10.57;9.47;;;;;;;9.08;42.99;96797.97;8416516;28;20236;-68
2023/03/06 11:56:53;;;;;;;10.73;9.53;;;;;;;8.89;43.40;96778.38;8416919;28;20232;-69
2023/03/06 12:01:05;;;;;;;11.63;9.70;;;;;;;9.32;43.10;96791.41;8416804;28;20228;-69
2023/03/06 12:05:23;;;;;;;11.63;10.43;;;;;;;9.46;42.36;96787.19;8417042;28;20392;-68
2023/03/06 12:09:30;;;;;;;9.90;8.90;;;;;;;9.90;42.24;96781.13;8416698;28;20224;-69
2023/03/06 12:13:48;;;;;;;11.10;9.80;;;;;;;9.90;41.86;96781.97;8416423;28;20232;-69
2023/03/06 12:18:00;;;;;;;10.40;9.27;;;;;;;10.03;41.47;96778.63;8416183;28;20232;-68
2023/03/06 12:22:19;;;;;;;12.70;10.73;;;;;;;10.03;41.17;96776.03;8416577;28;20225;-68
2023/03/06 12:26:51;;;;;;;10.80;9.77;;;;;;;9.92;41.61;96771.53;8416265;28;20565;-69
2023/03/06 12:31:12;;;;;;;11.43;10.30;;;;;;;9.97;41.34;96764.31;8416018;28;20260;-68
2023/03/06 12:35:40;;;;;;;12.13;10.83;;;;;;;9.84;40.79;96761.63;8415830;28;20233;-69
2023/03/06 12:39:54;;;;;;;12.87;10.53;;;;;;;9.74;40.76;96752.78;8415447;28;20267;-68
2023/03/06 12:44:23;;;;;;;11.13;10.03;;;;;;;9.89;40.05;96754.44;8415530;28;20295;-68
2023/03/06 12:48:29;;;;;;;12.13;10.67;;;;;;;9.39;41.19;96730.69;8415061;28;20520;-68
2023/03/06 12:52:34;;;;;;;11.93;10.73;;;;;;;9.50;40.36;96752.47;8415464;28;20233;-68
2023/03/06 12:56:37;;;;;;;10.73;9.63;;;;;;;9.48;40.48;96749.16;8415400;28;20232;-67
2023/03/06 13:00:59;;;;;;;13.43;11.67;;;;;;;9.43;40.39;96746.03;8415273;28;20236;-69
2023/03/06 13:05:54;;;;;;;11.57;9.80;;;;;;;9.73;40.25;96745.97;8414812;28;20231;-68
2023/03/06 13:10:05;;;;;;;10.90;9.60;;;;;;;9.50;40.17;96743.00;8337798;28;20228;-66
2023/03/06 13:14:24;;;;;;;9.97;8.97;;;;;;;9.54;39.60;96736.72;8414651;28;20595;-67
2023/03/06 13:19:03;;;;;;;9.50;8.57;;;;;;;9.12;40.56;96740.06;8414321;28;20550;-67
2023/03/06 13:23:45;;;;;;;8.33;7.53;;;;;;;9.14;39.61;96739.06;8414332;28;20224;-70
2023/03/06 13:28:01;;;;;;;8.97;8.07;;;;;;;9.16;40.09;96723.47;8421216;28;20228;-69
2023/03/06 13:32:16;;;;;;;9.47;8.20;;;;;;;9.54;39.95;96735.91;8414212;28;20226;-69
2023/03/06 13:36:23;;;;;;;9.20;8.20;;;;;;;9.15;40.44;96730.38;8414146;28;20248;-69
2023/03/06 13:40:31;;;;;;;9.70;8.70;;;;;;;9.12;41.23;96735.75;8413711;28;20228;-70
2023/03/06 13:44:42;;;;;;;8.57;7.80;;;;;;;9.09;40.28;96732.50;8413760;28;20228;-69
2023/03/06 13:48:46;;;;;;;8.57;7.73;;;;;;;9.02;39.84;96724.25;8412969;28;20228;-69
2023/03/06 13:53:07;;;;;;;9.47;8.57;;;;;;;9.20;39.61;96727.53;8413176;28;20236;-70
2023/03/06 13:57:22;;;;;;;8.20;7.40;;;;;;;9.01;40.38;96735.53;8411965;28;20224;-68
2023/03/06 14:01:39;;;;;;;7.87;7.07;;;;;;;8.64;39.85;96734.19;8412768;28;20242;-68
2023/03/06 14:05:43;;;;;;;9.03;8.13;;;;;;;8.82;41.47;96733.16;8412481;28;20296;-68
2023/03/06 14:09:47;;;;;;;9.43;8.47;;;;;;;8.85;40.98;96732.97;8412663;28;20232;-69
2023/03/06 14:13:51;;;;;;;9.33;8.40;;;;;;;8.71;41.28;96713.13;8412695;28;20231;-68
2023/03/06 14:17:59;;;;;;;9.33;8.43;;;;;;;8.83;40.96;96723.66;8412559;28;20239;-68
2023/03/06 14:22:02;;;;;;;13.67;9.70;;;;;;;8.98;41.19;96708.13;8412682;28;20493;-68
2023/03/06 14:26:13;;;;;;;14.67;11.57;;;;;;;8.98;41.40;96722.78;8412396;28;20227;-68
2023/03/06 14:30:19;;;;;;;10.73;9.63;;;;;;;8.89;41.27;96720.72;8412287;28;20228;-70
2023/03/06 14:34:25;;;;;;;9.70;8.70;;;;;;;8.63;41.07;96712.72;8412264;28;20228;-69
2023/03/06 14:38:33;;;;;;;10.30;9.30;;;;;;;9.10;40.34;96722.09;8411890;28;20427;-70
2023/03/06 14:42:36;;;;;;;9.77;8.77;;;;;;;8.80;41.02;96719.53;8412111;28;20232;-69
2023/03/06 14:46:39;;;;;;;10.03;9.03;;;;;;;9.21;40.35;96718.84;8411996;28;20255;-70
2023/03/06 14:50:47;;;;;;;10.63;9.40;;;;;;;9.52;39.63;96712.72;8445035;28;20285;-70
2023/03/06 14:54:51;;;;;;;9.53;8.53;;;;;;;9.32;40.20;96719.06;8445155;28;20242;-70
2023/03/06 14:58:55;;;;;;;11.83;9.93;;;;;;;8.81;40.83;96700.50;8445172;28;20424;-70
2023/03/06 15:02:59;;;;;;;10.33;9.33;;;;;;;8.77;41.25;96714.53;8445179;28;20572;-70
2023/03/06 15:07:06;;;;;;;10.03;8.70;;;;;;;8.60;41.89;96713.75;8445102;28;20384;-70
2023/03/06 15:11:08;;;;;;;11.87;10.37;;;;;;;9.09;41.41;96710.09;8451119;28;20227;-70
2023/03/06 15:15:29;;;;;;;11.27;9.93;;;;;;;8.74;41.87;96687.16;8452084;28;20231;-69
2023/03/06 15:19:39;;;;;;;12.27;10.40;;;;;;;8.74;42.28;96705.22;8451670;28;20235;-70
2023/03/06 15:23:45;;;;;;;10.57;9.33;;;;;;;8.98;41.66;96708.13;8417644;28;20556;-69
2023/03/06 15:27:49;;;;;;;11.50;10.00;;;;;;;9.05;41.86;96695.69;8418226;28;20231;-69
2023/03/06 15:31:52;;;;;;;11.27;9.47;;;;;;;8.66;42.43;96714.28;8417770;28;20227;-70
2023/03/06 15:36:00;;;;;;;10.50;9.43;;;;;;;8.67;42.07;96711.63;8417851;28;20250;-69
2023/03/06 15:40:08;;;;;;;11.33;8.97;;;;;;;8.52;41.94;96712.50;8417571;28;20254;-69
2023/03/06 15:44:12;;;;;;;10.03;8.97;;;;;;;8.38;42.63;96733.88;8417474;28;20235;-69
2023/03/06 15:48:17;;;;;;;10.53;9.37;;;;;;;8.68;41.99;96722.78;8417114;28;20235;-69
2023/03/06 15:52:20;;;;;;;10.33;9.23;;;;;;;8.54;42.03;96724.38;8417435;28;20232;-70
2023/03/06 15:56:28;;;;;;;10.10;9.10;;;;;;;8.38;42.44;96728.72;8417148;28;20282;-70
2023/03/06 16:00:34;;;;;;;9.20;8.27;;;;;;;8.56;42.30;96724.31;8416526;28;20235;-70
2023/03/06 16:04:37;;;;;;;9.50;8.50;;;;;;;8.50;42.18;96719.50;8416848;28;20429;-70
2023/03/06 16:08:40;;;;;;;14.43;10.43;;;;;;;8.55;42.72;96735.56;8416123;28;20232;-68
2023/03/06 16:12:48;;;;;;;10.10;9.10;;;;;;;8.82;41.96;96738.34;8441313;28;20416;-68
2023/03/06 16:16:53;;;;;;;11.13;9.60;;;;;;;8.16;43.84;96732.47;8449933;28;20231;-69
2023/03/06 16:20:56;;;;;;;11.27;9.70;;;;;;;8.43;43.04;96743.97;8448234;28;20327;-69
2023/03/06 16:24:58;;;;;;;10.67;9.57;;;;;;;8.54;43.28;96739.88;8449916;28;20250;-68
2023/03/06 16:29:03;;;;;;;11.87;10.67;;;;;;;8.31;43.86;96737.72;8449764;28;20246;-69
2023/03/06 16:33:06;;;;;;;11.73;10.20;;;;;;;8.37;44.38;96745.09;8449703;28;20223;-69
2023/03/06 16:37:11;;;;;;;11.90;10.70;;;;;;;8.29;44.36;96736.97;8449455;28;20223;-68
2023/03/06 16:41:14;;;;;;;12.47;11.17;;;;;;;8.37;44.63;96733.03;8449490;28;20522;-69
2023/03/06 16:45:20;;;;;;;11.93;10.63;;;;;;;8.21;44.96;96742.53;8449678;28;20519;-69
2023/03/06 16:49:25;;;;;;;12.33;11.03;;;;;;;8.16;45.40;96740.19;8449159;28;20228;-69
2023/03/06 16:53:29;;;;;;;13.80;11.73;;;;;;;8.34;44.90;96738.38;8448995;28;20262;-68
2023/03/06 16:57:34;;;;;;;12.90;11.60;;;;;;;8.19;45.40;96737.47;8449214;28;20227;-69
2023/03/06 17:01:41;;;;;;;17.83;13.20;;;;;;;8.13;45.66;96744.69;8448809;28;20234;-69
2023/03/06 17:05:44;;;;;;;14.47;11.90;;;;;;;7.87;45.46;96700.53;8447957;28;20227;-68
2023/03/06 17:09:47;;;;;;;13.27;11.73;;;;;;;7.99;46.07;96746.25;8448671;28;20232;-68
2023/03/06 17:13:50;;;;;;;14.43;12.90;;;;;;;7.96;46.24;96746.44;8448053;28;20235;-68
2023/03/06 17:17:54;;;;;;;13.37;11.90;;;;;;;8.01;46.03;96749.59;8447821;28;20227;-67
2023/03/06 17:21:57;;;;;;;13.20;11.60;;;;;;;7.99;46.16;96753.16;8447536;28;20232;-66
2023/03/06 17:26:05;;;;;;;21.70;15.97;;;;;;;8.06;46.00;96751.09;8447902;28;20236;-68
2023/03/06 17:30:09;;;;;;;13.37;11.93;;;;;;;8.09;45.75;96748.34;8447906;28;20326;-67
2023/03/06 17:34:13;;;;;;;14.33;12.07;;;;;;;8.18;45.71;96766.72;8447383;28;20230;-67
2023/03/06 17:38:16;;;;;;;13.83;12.30;;;;;;;8.20;45.81;96767.47;8447467;28;20228;-68
2023/03/06 17:42:19;;;;;;;13.97;12.37;;;;;;;8.05;45.63;96778.63;8447458;28;20231;-69
2023/03/06 17:46:22;;;;;;;13.37;11.97;;;;;;;8.21;45.66;96774.31;8447564;28;20223;-67
2023/03/06 17:50:26;;;;;;;13.37;11.80;;;;;;;8.09;46.08;96785.31;8447196;28;20549;-67
2023/03/06 17:54:29;;;;;;;14.65;13.10;;;;;;;8.30;45.50;96777.31;8446645;28;20746;-68
2023/03/06 17:58:32;;;;;;;14.90;13.00;;;;;;;8.19;45.55;96788.22;8446862;28;20238;-68
2023/03/06 18:02:36;;;;;;;14.87;12.53;;;;;;;8.17;45.84;96784.88;8446527;28;20231;-70
2023/03/06 18:06:40;;;;;;;14.17;12.40;;;;;;;7.95;46.61;96790.34;8447121;28;20231;-70
2023/03/06 18:10:43;;;;;;;13.50;12.10;;;;;;;7.92;46.47;96786.19;8446546;28;20220;-68
2023/03/06 18:14:47;;;;;;;14.57;12.40;;;;;;;7.86;46.66;96786.47;8446605;28;20254;-68
2023/03/06 18:18:51;;;;;;;12.43;11.13;;;;;;;7.71;47.31;96782.97;8446583;28;20436;-68
2023/03/06 18:23:02;;;;;;;13.00;11.50;;;;;;;8.13;46.46;96778.19;8446170;28;20223;-68
2023/03/06 18:27:04;;;;;;;12.30;10.97;;;;;;;7.87;47.20;96783.00;8445635;28;20231;-68
2023/03/06 18:31:14;;;;;;;11.97;10.60;;;;;;;7.95;47.01;96786.00;8446346;28;20246;-69
2023/03/06 18:35:17;;;;;;;12.23;11.03;;;;;;;7.84;47.64;96785.72;8446840;28;20269;-69
2023/03/06 18:39:21;;;;;;;12.60;10.90;;;;;;;7.48;48.15;96781.56;8446811;28;20503;-69
2023/03/06 18:43:24;;;;;;;13.53;11.00;;;;;;;7.87;47.63;96780.44;8446138;28;20228;-70
2023/03/06 18:47:27;;;;;;;12.50;10.90;;;;;;;7.91;47.42;96776.78;8445717;28;20415;-70
2023/03/06 18:51:30;;;;;;;12.00;10.20;;;;;;;7.85;47.69;96784.00;8446621;28;20235;-70
2023/03/06 18:55:35;;;;;;;13.50;12.10;;;;;;;7.63;48.03;96782.53;8445777;28;20231;-69
2023/03/06 18:59:37;;;;;;;12.30;11.10;;;;;;;7.69;48.28;96781.38;8445266;28;20224;-69
2023/03/06 19:03:40;;;;;;;12.60;11.20;;;;;;;7.67;48.04;96783.19;8446384;28;20231;-69
2023/03/06 19:07:43;;;;;;;12.67;11.37;;;;;;;7.89;47.89;96782.94;8445783;28;20224;-69
2023/03/06 19:11:47;;;;;;;13.43;12.03;;;;;;;7.84;48.04;96780.56;8446054;28;20238;-68